Havre City-County Information

FAA: HVR - ICAO: KHVR

Havre City-County (Airport) Location

State Montana
County Hill
City Havre
Havre City-County (Airport) is 3 miles west of Havre, MT.
Latitude 48-32-34.7000N
Longitude 109-45-44.4000W
Elevation 2,591ft

Havre City-County METARs

METAR KHVR 190153Z AUTO 31009KT 10SM FEW080 OVC110 M16/M21 A3039 RMK AO2 SLP349 T11561206
Altimeter 30.39"
Temperature -15.6°C (3.9°F)
Wind 310° at 9KT
Clouds few at 8,000ft overcast at 11,000ft
Visibility 10.0mi
Time observed: 2022-01-19T01:53:00Z

Havre City-County (Airport) Details

Status Operational
Activation April 1940
Ownership Public
Usage Public
Chart GREAT FALLS
ATC on-site No
Beacon schedule sunset-sunrise
Beacon color clear green

Havre City-County (Airport) Contacts

Owner CITY OF HAVRE & HILL CO
Owner address 520 4 TH ST, PO BOX 231, HAVRE, MT 59501
Owner phone (406) 265-6719
Manager JOHN FAULKNER
Manager address 2800 TERMINAL DRIVE, GREAT FALLS, MT 59404-5599
Manager phone 406-727-3404

Havre City-County Radio Frequencies

Havre City-County (Airport) Radio Frequencies

UNICOM 122.8
Common traffic advisory frequency (CTAF) 122.8